sensor_id;sensor_type;location;lat;lon;timestamp;P1;durP1;ratioP1;P2;durP2;ratioP2
57593;SDS011;43423;46.510;6.686;2022-09-20T00:02:17;5.72;;;0.80;;
57593;SDS011;43423;46.510;6.686;2022-09-20T00:04:42;1.27;;;0.47;;
57593;SDS011;43423;46.510;6.686;2022-09-20T00:07:08;2.72;;;0.90;;
57593;SDS011;43423;46.510;6.686;2022-09-20T00:09:33;4.55;;;0.82;;
57593;SDS011;43423;46.510;6.686;2022-09-20T00:11:59;0.90;;;0.70;;
57593;SDS011;43423;46.510;6.686;2022-09-20T00:14:25;0.57;;;0.55;;
57593;SDS011;43423;46.510;6.686;2022-09-20T00:16:50;5.68;;;1.05;;
57593;SDS011;43423;46.510;6.686;2022-09-20T00:19:17;1.80;;;0.70;;
57593;SDS011;43423;46.510;6.686;2022-09-20T00:21:45;2.63;;;0.70;;
57593;SDS011;43423;46.510;6.686;2022-09-20T00:24:11;3.88;;;0.80;;
57593;SDS011;43423;46.510;6.686;2022-09-20T00:26:37;3.75;;;0.70;;
57593;SDS011;43423;46.510;6.686;2022-09-20T00:29:04;4.03;;;0.95;;
57593;SDS011;43423;46.510;6.686;2022-09-20T00:31:30;1.30;;;0.98;;
57593;SDS011;43423;46.510;6.686;2022-09-20T00:33:56;1.27;;;0.80;;
57593;SDS011;43423;46.510;6.686;2022-09-20T00:36:41;5.63;;;0.77;;
57593;SDS011;43423;46.510;6.686;2022-09-20T00:39:08;2.70;;;0.80;;
57593;SDS011;43423;46.510;6.686;2022-09-20T00:41:35;1.05;;;0.90;;
57593;SDS011;43423;46.510;6.686;2022-09-20T00:44:01;2.70;;;0.82;;
57593;SDS011;43423;46.510;6.686;2022-09-20T00:47:11;1.85;;;0.88;;
57593;SDS011;43423;46.510;6.686;2022-09-20T00:49:43;3.78;;;0.73;;
57593;SDS011;43423;46.510;6.686;2022-09-20T00:52:09;3.85;;;0.65;;
57593;SDS011;43423;46.510;6.686;2022-09-20T00:54:35;2.35;;;0.68;;
57593;SDS011;43423;46.510;6.686;2022-09-20T00:57:01;1.15;;;0.68;;
57593;SDS011;43423;46.510;6.686;2022-09-20T00:59:37;2.13;;;0.80;;
57593;SDS011;43423;46.510;6.686;2022-09-20T01:02:08;1.58;;;0.93;;
57593;SDS011;43423;46.510;6.686;2022-09-20T01:04:38;1.75;;;1.27;;
57593;SDS011;43423;46.510;6.686;2022-09-20T01:07:06;1.75;;;0.70;;
57593;SDS011;43423;46.510;6.686;2022-09-20T01:09:35;2.60;;;0.88;;
57593;SDS011;43423;46.510;6.686;2022-09-20T01:12:02;2.55;;;0.70;;
57593;SDS011;43423;46.510;6.686;2022-09-20T01:14:31;2.67;;;0.88;;
57593;SDS011;43423;46.510;6.686;2022-09-20T01:17:00;0.70;;;0.70;;
57593;SDS011;43423;46.510;6.686;2022-09-20T01:22:22;3.80;;;0.77;;
57593;SDS011;43423;46.510;6.686;2022-09-20T01:27:43;7.20;;;1.08;;
57593;SDS011;43423;46.510;6.686;2022-09-20T01:30:13;3.65;;;0.90;;
57593;SDS011;43423;46.510;6.686;2022-09-20T01:32:50;4.70;;;0.70;;
57593;SDS011;43423;46.510;6.686;2022-09-20T01:35:16;2.13;;;0.80;;
57593;SDS011;43423;46.510;6.686;2022-09-20T01:40:51;1.45;;;0.80;;
57593;SDS011;43423;46.510;6.686;2022-09-20T01:43:35;2.83;;;0.90;;
57593;SDS011;43423;46.510;6.686;2022-09-20T01:46:10;1.20;;;0.77;;
57593;SDS011;43423;46.510;6.686;2022-09-20T01:48:46;2.63;;;1.00;;
57593;SDS011;43423;46.510;6.686;2022-09-20T02:11:20;7.20;;;1.05;;
57593;SDS011;43423;46.510;6.686;2022-09-20T02:14:03;3.97;;;0.80;;
57593;SDS011;43423;46.510;6.686;2022-09-20T02:16:52;3.28;;;1.33;;
57593;SDS011;43423;46.510;6.686;2022-09-20T02:30:36;1.95;;;0.93;;
57593;SDS011;43423;46.510;6.686;2022-09-20T02:33:22;0.80;;;0.80;;
57593;SDS011;43423;46.510;6.686;2022-09-20T02:39:15;2.45;;;1.23;;
57593;SDS011;43423;46.510;6.686;2022-09-20T02:41:51;1.08;;;0.80;;
57593;SDS011;43423;46.510;6.686;2022-09-20T02:55:17;2.40;;;0.88;;
57593;SDS011;43423;46.510;6.686;2022-09-20T02:57:56;3.05;;;1.00;;
57593;SDS011;43423;46.510;6.686;2022-09-20T03:06:29;1.23;;;0.85;;
57593;SDS011;43423;46.510;6.686;2022-09-20T03:14:36;2.30;;;1.13;;
57593;SDS011;43423;46.510;6.686;2022-09-20T03:17:17;3.85;;;1.30;;
57593;SDS011;43423;46.510;6.686;2022-09-20T03:19:57;3.13;;;1.00;;
57593;SDS011;43423;46.510;6.686;2022-09-20T03:22:37;2.78;;;0.90;;
57593;SDS011;43423;46.510;6.686;2022-09-20T03:25:20;3.13;;;1.02;;
57593;SDS011;43423;46.510;6.686;2022-09-20T03:30:40;0.80;;;0.80;;
57593;SDS011;43423;46.510;6.686;2022-09-20T03:39:31;1.48;;;1.05;;
57593;SDS011;43423;46.510;6.686;2022-09-20T03:42:24;2.15;;;1.02;;
57593;SDS011;43423;46.510;6.686;2022-09-20T03:44:58;4.88;;;1.40;;
57593;SDS011;43423;46.510;6.686;2022-09-20T04:15:36;7.82;;;1.27;;
57593;SDS011;43423;46.510;6.686;2022-09-20T04:24:09;2.97;;;1.27;;
57593;SDS011;43423;46.510;6.686;2022-09-20T04:29:29;2.47;;;1.30;;
57593;SDS011;43423;46.510;6.686;2022-09-20T04:34:40;2.97;;;1.42;;
57593;SDS011;43423;46.510;6.686;2022-09-20T04:37:30;1.90;;;1.15;;
57593;SDS011;43423;46.510;6.686;2022-09-20T04:45:51;0.95;;;0.88;;
57593;SDS011;43423;46.510;6.686;2022-09-20T05:00:08;2.20;;;1.20;;
57593;SDS011;43423;46.510;6.686;2022-09-20T05:08:21;2.47;;;1.35;;
57593;SDS011;43423;46.510;6.686;2022-09-20T05:11:45;3.90;;;1.42;;
57593;SDS011;43423;46.510;6.686;2022-09-20T05:22:57;5.72;;;1.42;;
57593;SDS011;43423;46.510;6.686;2022-09-20T05:30:43;3.55;;;1.17;;
57593;SDS011;43423;46.510;6.686;2022-09-20T05:35:52;2.58;;;1.40;;
57593;SDS011;43423;46.510;6.686;2022-09-20T05:38:35;3.45;;;1.25;;
57593;SDS011;43423;46.510;6.686;2022-09-20T05:41:10;3.08;;;1.25;;
57593;SDS011;43423;46.510;6.686;2022-09-20T05:46:41;2.25;;;1.27;;
57593;SDS011;43423;46.510;6.686;2022-09-20T05:55:21;1.98;;;1.10;;
57593;SDS011;43423;46.510;6.686;2022-09-20T05:58:02;2.38;;;1.23;;
57593;SDS011;43423;46.510;6.686;2022-09-20T06:01:01;4.80;;;1.63;;
57593;SDS011;43423;46.510;6.686;2022-09-20T06:03:36;4.00;;;1.95;;
57593;SDS011;43423;46.510;6.686;2022-09-20T06:17:27;2.13;;;1.50;;
57593;SDS011;43423;46.510;6.686;2022-09-20T06:20:07;3.85;;;1.73;;
57593;SDS011;43423;46.510;6.686;2022-09-20T06:22:39;3.20;;;1.55;;
57593;SDS011;43423;46.510;6.686;2022-09-20T06:27:37;2.10;;;1.67;;
57593;SDS011;43423;46.510;6.686;2022-09-20T06:30:16;2.90;;;1.95;;
57593;SDS011;43423;46.510;6.686;2022-09-20T06:33:00;7.22;;;1.67;;
57593;SDS011;43423;46.510;6.686;2022-09-20T06:35:44;4.82;;;2.10;;
57593;SDS011;43423;46.510;6.686;2022-09-20T06:41:42;2.25;;;1.67;;
57593;SDS011;43423;46.510;6.686;2022-09-20T06:44:08;4.75;;;1.92;;
57593;SDS011;43423;46.510;6.686;2022-09-20T06:46:34;4.00;;;1.60;;
57593;SDS011;43423;46.510;6.686;2022-09-20T06:49:00;5.60;;;1.63;;
57593;SDS011;43423;46.510;6.686;2022-09-20T06:51:27;6.78;;;1.70;;
57593;SDS011;43423;46.510;6.686;2022-09-20T06:53:58;2.47;;;1.65;;
57593;SDS011;43423;46.510;6.686;2022-09-20T06:56:25;2.90;;;1.90;;
57593;SDS011;43423;46.510;6.686;2022-09-20T06:58:53;3.80;;;1.92;;
57593;SDS011;43423;46.510;6.686;2022-09-20T07:01:19;5.85;;;1.70;;
57593;SDS011;43423;46.510;6.686;2022-09-20T07:03:45;5.10;;;1.40;;
57593;SDS011;43423;46.510;6.686;2022-09-20T07:06:11;2.25;;;1.80;;
57593;SDS011;43423;46.510;6.686;2022-09-20T07:08:37;3.10;;;1.80;;
57593;SDS011;43423;46.510;6.686;2022-09-20T07:11:05;5.65;;;1.63;;
57593;SDS011;43423;46.510;6.686;2022-09-20T07:13:34;5.47;;;1.65;;
57593;SDS011;43423;46.510;6.686;2022-09-20T07:16:04;4.22;;;2.00;;
57593;SDS011;43423;46.510;6.686;2022-09-20T07:18:30;6.47;;;1.48;;
57593;SDS011;43423;46.510;6.686;2022-09-20T07:20:58;4.03;;;1.55;;
57593;SDS011;43423;46.510;6.686;2022-09-20T07:23:27;4.70;;;1.80;;
57593;SDS011;43423;46.510;6.686;2022-09-20T07:25:54;2.67;;;2.03;;
57593;SDS011;43423;46.510;6.686;2022-09-20T07:28:22;4.80;;;2.50;;
57593;SDS011;43423;46.510;6.686;2022-09-20T07:30:48;7.68;;;2.55;;
57593;SDS011;43423;46.510;6.686;2022-09-20T07:33:14;4.97;;;2.67;;
57593;SDS011;43423;46.510;6.686;2022-09-20T07:35:49;6.90;;;2.90;;
57593;SDS011;43423;46.510;6.686;2022-09-20T07:38:18;6.53;;;3.13;;
57593;SDS011;43423;46.510;6.686;2022-09-20T07:40:52;6.93;;;2.67;;
57593;SDS011;43423;46.510;6.686;2022-09-20T07:43:23;5.75;;;2.30;;
57593;SDS011;43423;46.510;6.686;2022-09-20T07:45:52;4.10;;;1.95;;
57593;SDS011;43423;46.510;6.686;2022-09-20T07:48:21;4.97;;;1.98;;
57593;SDS011;43423;46.510;6.686;2022-09-20T07:50:50;2.85;;;1.88;;
57593;SDS011;43423;46.510;6.686;2022-09-20T07:53:16;7.13;;;1.60;;
57593;SDS011;43423;46.510;6.686;2022-09-20T07:55:42;6.40;;;1.52;;
57593;SDS011;43423;46.510;6.686;2022-09-20T07:58:08;4.30;;;1.80;;
57593;SDS011;43423;46.510;6.686;2022-09-20T08:00:33;1.67;;;1.30;;
57593;SDS011;43423;46.510;6.686;2022-09-20T08:02:59;5.13;;;1.42;;
57593;SDS011;43423;46.510;6.686;2022-09-20T08:05:25;3.88;;;1.42;;
57593;SDS011;43423;46.510;6.686;2022-09-20T08:07:50;3.33;;;1.40;;
57593;SDS011;43423;46.510;6.686;2022-09-20T08:10:16;2.60;;;1.63;;
57593;SDS011;43423;46.510;6.686;2022-09-20T08:12:41;4.32;;;1.90;;
57593;SDS011;43423;46.510;6.686;2022-09-20T08:15:07;2.53;;;1.50;;
57593;SDS011;43423;46.510;6.686;2022-09-20T08:17:33;5.60;;;1.88;;
57593;SDS011;43423;46.510;6.686;2022-09-20T08:19:58;7.40;;;2.35;;
57593;SDS011;43423;46.510;6.686;2022-09-20T08:22:24;3.13;;;1.55;;
57593;SDS011;43423;46.510;6.686;2022-09-20T08:24:50;4.38;;;1.63;;
57593;SDS011;43423;46.510;6.686;2022-09-20T08:27:16;3.80;;;1.70;;
57593;SDS011;43423;46.510;6.686;2022-09-20T08:29:41;4.22;;;1.77;;
57593;SDS011;43423;46.510;6.686;2022-09-20T08:32:07;3.88;;;2.42;;
57593;SDS011;43423;46.510;6.686;2022-09-20T08:34:33;3.03;;;2.20;;
57593;SDS011;43423;46.510;6.686;2022-09-20T08:36:58;4.25;;;1.95;;
57593;SDS011;43423;46.510;6.686;2022-09-20T08:39:23;4.07;;;2.00;;
57593;SDS011;43423;46.510;6.686;2022-09-20T08:46:51;3.90;;;1.70;;
57593;SDS011;43423;46.510;6.686;2022-09-20T08:49:27;6.68;;;2.30;;
57593;SDS011;43423;46.510;6.686;2022-09-20T08:51:54;5.00;;;1.90;;
57593;SDS011;43423;46.510;6.686;2022-09-20T08:54:22;5.22;;;2.22;;
57593;SDS011;43423;46.510;6.686;2022-09-20T08:56:51;4.38;;;1.90;;
57593;SDS011;43423;46.510;6.686;2022-09-20T08:59:19;4.78;;;2.15;;
57593;SDS011;43423;46.510;6.686;2022-09-20T09:01:47;4.72;;;3.05;;
57593;SDS011;43423;46.510;6.686;2022-09-20T09:04:18;7.03;;;3.47;;
57593;SDS011;43423;46.510;6.686;2022-09-20T09:06:46;5.93;;;2.40;;
57593;SDS011;43423;46.510;6.686;2022-09-20T09:09:16;9.38;;;3.03;;
57593;SDS011;43423;46.510;6.686;2022-09-20T09:11:44;5.70;;;2.90;;
57593;SDS011;43423;46.510;6.686;2022-09-20T09:17:20;9.30;;;4.28;;
57593;SDS011;43423;46.510;6.686;2022-09-20T09:19:49;9.82;;;4.70;;
57593;SDS011;43423;46.510;6.686;2022-09-20T09:27:33;19.27;;;10.20;;
57593;SDS011;43423;46.510;6.686;2022-09-20T09:30:10;19.02;;;8.85;;
57593;SDS011;43423;46.510;6.686;2022-09-20T09:32:44;18.15;;;8.07;;
57593;SDS011;43423;46.510;6.686;2022-09-20T09:37:58;18.00;;;5.97;;
57593;SDS011;43423;46.510;6.686;2022-09-20T09:40:26;6.78;;;4.25;;
57593;SDS011;43423;46.510;6.686;2022-09-20T09:42:56;8.10;;;4.55;;
57593;SDS011;43423;46.510;6.686;2022-09-20T09:48:25;9.30;;;3.67;;
57593;SDS011;43423;46.510;6.686;2022-09-20T09:51:27;6.25;;;3.13;;
57593;SDS011;43423;46.510;6.686;2022-09-20T09:53:47;5.75;;;3.15;;
57593;SDS011;43423;46.510;6.686;2022-09-20T09:56:17;7.53;;;3.80;;
57593;SDS011;43423;46.510;6.686;2022-09-20T10:09:35;10.40;;;3.88;;
57593;SDS011;43423;46.510;6.686;2022-09-20T10:15:23;4.90;;;2.78;;
57593;SDS011;43423;46.510;6.686;2022-09-20T10:21:33;6.32;;;3.45;;
57593;SDS011;43423;46.510;6.686;2022-09-20T10:27:03;5.03;;;2.90;;
57593;SDS011;43423;46.510;6.686;2022-09-20T10:37:50;5.13;;;3.00;;
57593;SDS011;43423;46.510;6.686;2022-09-20T10:43:55;6.10;;;3.10;;
57593;SDS011;43423;46.510;6.686;2022-09-20T10:46:35;4.68;;;2.88;;
57593;SDS011;43423;46.510;6.686;2022-09-20T10:52:33;6.18;;;3.05;;
57593;SDS011;43423;46.510;6.686;2022-09-20T11:01:02;4.43;;;2.13;;
57593;SDS011;43423;46.510;6.686;2022-09-20T11:07:01;4.15;;;1.98;;
57593;SDS011;43423;46.510;6.686;2022-09-20T11:09:31;1.88;;;1.50;;
57593;SDS011;43423;46.510;6.686;2022-09-20T11:12:05;3.55;;;1.55;;
57593;SDS011;43423;46.510;6.686;2022-09-20T11:14:58;6.70;;;1.55;;
57593;SDS011;43423;46.510;6.686;2022-09-20T11:17:40;5.15;;;1.77;;
57593;SDS011;43423;46.510;6.686;2022-09-20T11:22:59;1.88;;;1.20;;
57593;SDS011;43423;46.510;6.686;2022-09-20T11:25:32;2.53;;;1.30;;
57593;SDS011;43423;46.510;6.686;2022-09-20T11:28:13;5.30;;;1.80;;
57593;SDS011;43423;46.510;6.686;2022-09-20T11:33:27;2.17;;;1.20;;
57593;SDS011;43423;46.510;6.686;2022-09-20T11:35:59;4.88;;;1.30;;
57593;SDS011;43423;46.510;6.686;2022-09-20T11:38:34;4.07;;;1.17;;
57593;SDS011;43423;46.510;6.686;2022-09-20T11:41:25;2.60;;;1.17;;
57593;SDS011;43423;46.510;6.686;2022-09-20T11:43:53;5.13;;;1.40;;
57593;SDS011;43423;46.510;6.686;2022-09-20T11:46:30;2.38;;;1.10;;
57593;SDS011;43423;46.510;6.686;2022-09-20T11:57:24;4.63;;;1.30;;
57593;SDS011;43423;46.510;6.686;2022-09-20T11:59:51;1.30;;;0.80;;
57593;SDS011;43423;46.510;6.686;2022-09-20T12:03:06;4.27;;;0.93;;
57593;SDS011;43423;46.510;6.686;2022-09-20T12:05:26;5.07;;;1.15;;
57593;SDS011;43423;46.510;6.686;2022-09-20T12:07:58;4.60;;;1.13;;
57593;SDS011;43423;46.510;6.686;2022-09-20T12:10:27;1.92;;;1.20;;
57593;SDS011;43423;46.510;6.686;2022-09-20T12:12:59;2.30;;;0.70;;
57593;SDS011;43423;46.510;6.686;2022-09-20T12:28:50;2.60;;;1.38;;
57593;SDS011;43423;46.510;6.686;2022-09-20T12:36:29;2.92;;;1.00;;
57593;SDS011;43423;46.510;6.686;2022-09-20T12:38:59;2.38;;;1.10;;
57593;SDS011;43423;46.510;6.686;2022-09-20T12:57:55;1.70;;;1.35;;
57593;SDS011;43423;46.510;6.686;2022-09-20T13:00:49;4.53;;;1.35;;
57593;SDS011;43423;46.510;6.686;2022-09-20T13:03:34;3.95;;;1.13;;
57593;SDS011;43423;46.510;6.686;2022-09-20T13:08:46;2.90;;;0.63;;
57593;SDS011;43423;46.510;6.686;2022-09-20T13:11:22;1.25;;;0.70;;
57593;SDS011;43423;46.510;6.686;2022-09-20T13:16:20;1.75;;;1.00;;
57593;SDS011;43423;46.510;6.686;2022-09-20T13:18:56;4.07;;;0.93;;
57593;SDS011;43423;46.510;6.686;2022-09-20T13:21:28;1.67;;;0.70;;
57593;SDS011;43423;46.510;6.686;2022-09-20T13:23:56;3.90;;;0.77;;
57593;SDS011;43423;46.510;6.686;2022-09-20T13:26:28;4.97;;;0.90;;
57593;SDS011;43423;46.510;6.686;2022-09-20T13:28:58;2.13;;;0.90;;
57593;SDS011;43423;46.510;6.686;2022-09-20T13:31:29;2.47;;;0.90;;
57593;SDS011;43423;46.510;6.686;2022-09-20T13:34:12;3.53;;;0.77;;
57593;SDS011;43423;46.510;6.686;2022-09-20T13:36:39;2.95;;;0.85;;
57593;SDS011;43423;46.510;6.686;2022-09-20T13:39:05;3.22;;;0.63;;
57593;SDS011;43423;46.510;6.686;2022-09-20T13:41:32;2.05;;;0.55;;
57593;SDS011;43423;46.510;6.686;2022-09-20T13:43:59;1.10;;;0.80;;
57593;SDS011;43423;46.510;6.686;2022-09-20T13:46:30;1.10;;;0.65;;
57593;SDS011;43423;46.510;6.686;2022-09-20T13:49:16;2.20;;;0.93;;
57593;SDS011;43423;46.510;6.686;2022-09-20T13:51:48;1.55;;;0.95;;
57593;SDS011;43423;46.510;6.686;2022-09-20T13:54:24;1.55;;;0.60;;
57593;SDS011;43423;46.510;6.686;2022-09-20T13:56:52;2.83;;;1.38;;
57593;SDS011;43423;46.510;6.686;2022-09-20T13:59:20;0.60;;;0.47;;
57593;SDS011;43423;46.510;6.686;2022-09-20T14:01:50;1.98;;;0.65;;
57593;SDS011;43423;46.510;6.686;2022-09-20T14:04:22;4.72;;;1.00;;
57593;SDS011;43423;46.510;6.686;2022-09-20T14:06:50;6.40;;;0.90;;
57593;SDS011;43423;46.510;6.686;2022-09-20T14:11:55;2.33;;;0.65;;
57593;SDS011;43423;46.510;6.686;2022-09-20T14:14:23;4.18;;;0.80;;
57593;SDS011;43423;46.510;6.686;2022-09-20T14:16:49;2.95;;;0.68;;
57593;SDS011;43423;46.510;6.686;2022-09-20T14:19:17;1.95;;;0.60;;
57593;SDS011;43423;46.510;6.686;2022-09-20T14:21:46;2.47;;;0.85;;
57593;SDS011;43423;46.510;6.686;2022-09-20T14:26:38;2.72;;;0.70;;
57593;SDS011;43423;46.510;6.686;2022-09-20T14:31:55;3.83;;;0.90;;
57593;SDS011;43423;46.510;6.686;2022-09-20T14:34:23;4.70;;;0.90;;
57593;SDS011;43423;46.510;6.686;2022-09-20T14:36:48;1.35;;;0.45;;
57593;SDS011;43423;46.510;6.686;2022-09-20T14:39:15;5.60;;;0.90;;
57593;SDS011;43423;46.510;6.686;2022-09-20T14:41:45;2.60;;;0.82;;
57593;SDS011;43423;46.510;6.686;2022-09-20T14:46:57;3.25;;;1.05;;
57593;SDS011;43423;46.510;6.686;2022-09-20T14:51:49;1.95;;;0.70;;
57593;SDS011;43423;46.510;6.686;2022-09-20T14:54:28;3.08;;;1.23;;
57593;SDS011;43423;46.510;6.686;2022-09-20T14:56:56;3.42;;;0.90;;
57593;SDS011;43423;46.510;6.686;2022-09-20T14:59:23;3.15;;;1.00;;
57593;SDS011;43423;46.510;6.686;2022-09-20T15:01:54;2.55;;;0.88;;
57593;SDS011;43423;46.510;6.686;2022-09-20T15:04:23;3.95;;;1.00;;
57593;SDS011;43423;46.510;6.686;2022-09-20T15:06:51;2.33;;;0.93;;
57593;SDS011;43423;46.510;6.686;2022-09-20T15:09:17;4.88;;;1.08;;
57593;SDS011;43423;46.510;6.686;2022-09-20T15:11:44;3.33;;;1.05;;
57593;SDS011;43423;46.510;6.686;2022-09-20T15:14:10;4.85;;;1.40;;
57593;SDS011;43423;46.510;6.686;2022-09-20T15:16:36;2.95;;;1.17;;
57593;SDS011;43423;46.510;6.686;2022-09-20T15:19:02;3.00;;;0.80;;
57593;SDS011;43423;46.510;6.686;2022-09-20T15:21:29;3.03;;;0.75;;
57593;SDS011;43423;46.510;6.686;2022-09-20T15:23:55;3.75;;;0.93;;
57593;SDS011;43423;46.510;6.686;2022-09-20T15:26:20;5.35;;;1.27;;
57593;SDS011;43423;46.510;6.686;2022-09-20T15:28:46;4.40;;;1.20;;
57593;SDS011;43423;46.510;6.686;2022-09-20T15:31:12;3.78;;;1.20;;
57593;SDS011;43423;46.510;6.686;2022-09-20T15:33:39;3.80;;;0.90;;
57593;SDS011;43423;46.510;6.686;2022-09-20T15:36:05;3.28;;;1.15;;
57593;SDS011;43423;46.510;6.686;2022-09-20T15:38:31;2.47;;;0.90;;
57593;SDS011;43423;46.510;6.686;2022-09-20T15:40:58;2.55;;;1.10;;
57593;SDS011;43423;46.510;6.686;2022-09-20T15:43:27;4.18;;;1.10;;
57593;SDS011;43423;46.510;6.686;2022-09-20T15:45:56;4.95;;;1.20;;
57593;SDS011;43423;46.510;6.686;2022-09-20T15:48:25;3.10;;;1.00;;
57593;SDS011;43423;46.510;6.686;2022-09-20T15:53:33;2.72;;;0.93;;
57593;SDS011;43423;46.510;6.686;2022-09-20T15:56:02;0.85;;;0.80;;
57593;SDS011;43423;46.510;6.686;2022-09-20T15:58:30;5.50;;;1.00;;
57593;SDS011;43423;46.510;6.686;2022-09-20T16:01:04;3.67;;;1.17;;
57593;SDS011;43423;46.510;6.686;2022-09-20T16:03:32;5.63;;;1.15;;
57593;SDS011;43423;46.510;6.686;2022-09-20T16:06:02;1.50;;;0.98;;
57593;SDS011;43423;46.510;6.686;2022-09-20T16:08:33;3.45;;;1.20;;
57593;SDS011;43423;46.510;6.686;2022-09-20T16:11:00;1.05;;;0.95;;
57593;SDS011;43423;46.510;6.686;2022-09-20T16:13:27;5.10;;;1.48;;
57593;SDS011;43423;46.510;6.686;2022-09-20T16:15:56;3.60;;;1.08;;
57593;SDS011;43423;46.510;6.686;2022-09-20T16:21:09;1.48;;;1.00;;
57593;SDS011;43423;46.510;6.686;2022-09-20T16:23:40;2.35;;;0.90;;
57593;SDS011;43423;46.510;6.686;2022-09-20T16:26:06;2.45;;;0.88;;
57593;SDS011;43423;46.510;6.686;2022-09-20T16:28:39;6.47;;;1.25;;
57593;SDS011;43423;46.510;6.686;2022-09-20T16:31:05;1.15;;;0.85;;
57593;SDS011;43423;46.510;6.686;2022-09-20T16:33:31;4.38;;;1.20;;
57593;SDS011;43423;46.510;6.686;2022-09-20T16:35:58;1.58;;;0.98;;
57593;SDS011;43423;46.510;6.686;2022-09-20T16:38:24;8.90;;;1.00;;
57593;SDS011;43423;46.510;6.686;2022-09-20T16:40:49;4.80;;;1.20;;
57593;SDS011;43423;46.510;6.686;2022-09-20T16:43:20;1.67;;;1.05;;
57593;SDS011;43423;46.510;6.686;2022-09-20T16:45:57;2.92;;;1.05;;
57593;SDS011;43423;46.510;6.686;2022-09-20T16:48:25;4.93;;;1.30;;
57593;SDS011;43423;46.510;6.686;2022-09-20T16:50:55;4.30;;;1.17;;
57593;SDS011;43423;46.510;6.686;2022-09-20T16:53:21;1.08;;;0.98;;
57593;SDS011;43423;46.510;6.686;2022-09-20T16:55:46;1.98;;;1.15;;
57593;SDS011;43423;46.510;6.686;2022-09-20T16:58:13;1.52;;;0.90;;
57593;SDS011;43423;46.510;6.686;2022-09-20T17:00:39;1.95;;;0.93;;
57593;SDS011;43423;46.510;6.686;2022-09-20T17:03:04;3.80;;;1.30;;
57593;SDS011;43423;46.510;6.686;2022-09-20T17:05:30;3.08;;;1.33;;
57593;SDS011;43423;46.510;6.686;2022-09-20T17:07:55;6.00;;;1.38;;
57593;SDS011;43423;46.510;6.686;2022-09-20T17:10:21;3.83;;;1.08;;
57593;SDS011;43423;46.510;6.686;2022-09-20T17:12:48;1.45;;;1.10;;
57593;SDS011;43423;46.510;6.686;2022-09-20T17:15:17;1.23;;;0.82;;
57593;SDS011;43423;46.510;6.686;2022-09-20T17:17:43;5.70;;;1.30;;
57593;SDS011;43423;46.510;6.686;2022-09-20T17:20:09;2.17;;;1.08;;
57593;SDS011;43423;46.510;6.686;2022-09-20T17:22:35;1.92;;;0.75;;
57593;SDS011;43423;46.510;6.686;2022-09-20T17:25:01;2.75;;;1.10;;
57593;SDS011;43423;46.510;6.686;2022-09-20T17:27:26;2.80;;;0.95;;
57593;SDS011;43423;46.510;6.686;2022-09-20T17:29:52;3.10;;;0.90;;
57593;SDS011;43423;46.510;6.686;2022-09-20T17:32:17;1.85;;;1.10;;
57593;SDS011;43423;46.510;6.686;2022-09-20T17:34:44;1.00;;;0.90;;
57593;SDS011;43423;46.510;6.686;2022-09-20T17:37:09;6.65;;;1.10;;
57593;SDS011;43423;46.510;6.686;2022-09-20T17:39:35;1.55;;;1.30;;
57593;SDS011;43423;46.510;6.686;2022-09-20T17:42:00;2.72;;;1.10;;
57593;SDS011;43423;46.510;6.686;2022-09-20T17:44:26;2.67;;;1.23;;
57593;SDS011;43423;46.510;6.686;2022-09-20T17:46:52;2.38;;;0.98;;
57593;SDS011;43423;46.510;6.686;2022-09-20T17:49:19;3.78;;;1.17;;
57593;SDS011;43423;46.510;6.686;2022-09-20T17:54:16;4.13;;;1.50;;
57593;SDS011;43423;46.510;6.686;2022-09-20T17:56:44;4.22;;;1.48;;
57593;SDS011;43423;46.510;6.686;2022-09-20T17:59:11;5.75;;;1.40;;
57593;SDS011;43423;46.510;6.686;2022-09-20T18:01:40;2.65;;;1.02;;
57593;SDS011;43423;46.510;6.686;2022-09-20T18:04:07;1.25;;;1.15;;
57593;SDS011;43423;46.510;6.686;2022-09-20T18:06:52;6.72;;;1.25;;
57593;SDS011;43423;46.510;6.686;2022-09-20T18:09:20;3.10;;;1.35;;
57593;SDS011;43423;46.510;6.686;2022-09-20T18:11:47;2.15;;;1.45;;
57593;SDS011;43423;46.510;6.686;2022-09-20T18:14:16;5.47;;;1.33;;
57593;SDS011;43423;46.510;6.686;2022-09-20T18:16:45;2.17;;;0.98;;
57593;SDS011;43423;46.510;6.686;2022-09-20T18:19:11;4.95;;;1.42;;
57593;SDS011;43423;46.510;6.686;2022-09-20T18:21:38;3.35;;;1.35;;
57593;SDS011;43423;46.510;6.686;2022-09-20T18:24:05;3.67;;;1.25;;
57593;SDS011;43423;46.510;6.686;2022-09-20T18:26:32;1.58;;;1.25;;
57593;SDS011;43423;46.510;6.686;2022-09-20T18:29:05;2.05;;;1.27;;
57593;SDS011;43423;46.510;6.686;2022-09-20T18:31:44;2.65;;;1.15;;
57593;SDS011;43423;46.510;6.686;2022-09-20T18:34:15;3.28;;;1.40;;
57593;SDS011;43423;46.510;6.686;2022-09-20T18:36:55;4.10;;;1.30;;
57593;SDS011;43423;46.510;6.686;2022-09-20T18:39:22;2.17;;;1.10;;
57593;SDS011;43423;46.510;6.686;2022-09-20T18:41:48;5.15;;;1.48;;
57593;SDS011;43423;46.510;6.686;2022-09-20T18:44:15;4.07;;;1.38;;
57593;SDS011;43423;46.510;6.686;2022-09-20T18:46:42;2.08;;;1.30;;
57593;SDS011;43423;46.510;6.686;2022-09-20T18:49:08;3.25;;;1.20;;
57593;SDS011;43423;46.510;6.686;2022-09-20T18:51:37;4.82;;;1.20;;
57593;SDS011;43423;46.510;6.686;2022-09-20T18:54:02;3.80;;;1.27;;
57593;SDS011;43423;46.510;6.686;2022-09-20T18:56:31;5.93;;;1.73;;
57593;SDS011;43423;46.510;6.686;2022-09-20T18:59:32;7.28;;;1.35;;
57593;SDS011;43423;46.510;6.686;2022-09-20T19:02:38;2.00;;;1.10;;
57593;SDS011;43423;46.510;6.686;2022-09-20T19:04:56;4.13;;;1.40;;
57593;SDS011;43423;46.510;6.686;2022-09-20T19:20:58;2.25;;;1.67;;
57593;SDS011;43423;46.510;6.686;2022-09-20T19:26:06;4.50;;;1.20;;
57593;SDS011;43423;46.510;6.686;2022-09-20T19:28:49;2.70;;;1.15;;
57593;SDS011;43423;46.510;6.686;2022-09-20T19:31:20;5.57;;;1.25;;
57593;SDS011;43423;46.510;6.686;2022-09-20T19:33:46;1.35;;;1.23;;
57593;SDS011;43423;46.510;6.686;2022-09-20T19:36:13;3.08;;;1.20;;
57593;SDS011;43423;46.510;6.686;2022-09-20T19:38:45;2.25;;;1.08;;
57593;SDS011;43423;46.510;6.686;2022-09-20T19:41:29;3.10;;;1.20;;
57593;SDS011;43423;46.510;6.686;2022-09-20T19:47:02;1.77;;;1.05;;
57593;SDS011;43423;46.510;6.686;2022-09-20T19:52:12;1.92;;;0.95;;
57593;SDS011;43423;46.510;6.686;2022-09-20T19:54:38;1.92;;;1.25;;
57593;SDS011;43423;46.510;6.686;2022-09-20T19:57:05;2.65;;;1.13;;
57593;SDS011;43423;46.510;6.686;2022-09-20T19:59:33;2.55;;;1.40;;
57593;SDS011;43423;46.510;6.686;2022-09-20T20:02:00;2.75;;;0.90;;
57593;SDS011;43423;46.510;6.686;2022-09-20T20:04:26;3.72;;;1.00;;
57593;SDS011;43423;46.510;6.686;2022-09-20T20:07:02;3.80;;;1.00;;
57593;SDS011;43423;46.510;6.686;2022-09-20T20:09:44;3.03;;;1.20;;
57593;SDS011;43423;46.510;6.686;2022-09-20T20:12:22;3.05;;;1.20;;
57593;SDS011;43423;46.510;6.686;2022-09-20T20:15:16;0.80;;;0.80;;
57593;SDS011;43423;46.510;6.686;2022-09-20T20:18:07;4.45;;;1.90;;
57593;SDS011;43423;46.510;6.686;2022-09-20T20:20:53;1.27;;;0.90;;
57593;SDS011;43423;46.510;6.686;2022-09-20T20:26:39;2.85;;;1.15;;
57593;SDS011;43423;46.510;6.686;2022-09-20T20:29:04;1.92;;;1.05;;
57593;SDS011;43423;46.510;6.686;2022-09-20T20:31:30;2.50;;;1.08;;
57593;SDS011;43423;46.510;6.686;2022-09-20T20:33:56;2.17;;;1.05;;
57593;SDS011;43423;46.510;6.686;2022-09-20T20:36:21;3.95;;;1.00;;
57593;SDS011;43423;46.510;6.686;2022-09-20T20:38:47;3.97;;;1.00;;
57593;SDS011;43423;46.510;6.686;2022-09-20T20:41:18;3.83;;;1.40;;
57593;SDS011;43423;46.510;6.686;2022-09-20T20:43:46;1.58;;;1.10;;
57593;SDS011;43423;46.510;6.686;2022-09-20T20:46:15;1.17;;;1.08;;
57593;SDS011;43423;46.510;6.686;2022-09-20T20:48:43;1.35;;;1.05;;
57593;SDS011;43423;46.510;6.686;2022-09-20T20:51:10;1.23;;;0.82;;
57593;SDS011;43423;46.510;6.686;2022-09-20T20:53:38;1.48;;;0.93;;
57593;SDS011;43423;46.510;6.686;2022-09-20T20:56:10;1.23;;;0.73;;